createdAt,value
2018-09-24T00:00:12.301Z,32.3
2018-09-24T00:01:14.641Z,32.3
2018-09-24T00:02:16.196Z,31.8
2018-09-24T00:03:17.426Z,32.3
2018-09-24T00:04:18.977Z,32.3
2018-09-24T00:05:20.543Z,31.8
2018-09-24T00:06:21.976Z,31.8
2018-09-24T00:07:23.370Z,32.3
2018-09-24T00:08:24.924Z,31.3
2018-09-24T00:09:26.486Z,31.3
2018-09-24T00:10:28.051Z,31.3
2018-09-24T00:11:29.607Z,32.3
2018-09-24T00:12:31.180Z,32.3
2018-09-24T00:13:32.747Z,31.8
2018-09-24T00:14:34.320Z,31.8
2018-09-24T00:15:35.880Z,31.8
2018-09-24T00:16:37.468Z,32.3
2018-09-24T00:17:39.045Z,31.3
2018-09-24T00:18:40.599Z,31.8
2018-09-24T00:19:41.994Z,32.7
2018-09-24T00:20:43.548Z,31.8
2018-09-24T00:21:44.951Z,31.3
2018-09-24T00:22:46.538Z,31.3
2018-09-24T00:23:48.107Z,31.3
2018-09-24T00:24:49.667Z,31.8
2018-09-24T00:25:51.226Z,31.8
2018-09-24T00:26:52.627Z,31.8
2018-09-24T00:27:54.176Z,31.8
2018-09-24T00:28:55.743Z,32.3
2018-09-24T00:29:57.296Z,32.3
2018-09-24T00:30:58.851Z,31.8
2018-09-24T00:32:00.416Z,31.8
2018-09-24T00:33:01.997Z,31.8
2018-09-24T00:34:03.582Z,31.8
2018-09-24T00:35:05.157Z,32.3
2018-09-24T00:36:06.717Z,32.3
2018-09-24T00:37:08.276Z,31.8
2018-09-24T00:38:09.846Z,31.3
2018-09-24T00:39:11.417Z,31.3
2018-09-24T00:40:12.972Z,32.3
2018-09-24T00:41:14.532Z,31.8
2018-09-24T00:42:16.104Z,31.8
2018-09-24T00:43:17.687Z,32.3
2018-09-24T00:44:19.238Z,31.3
2018-09-24T00:45:20.797Z,31.8
2018-09-24T00:46:22.372Z,31.3
2018-09-24T00:47:23.913Z,30.3
2018-09-24T00:48:25.476Z,31.3
2018-09-24T00:49:27.018Z,31.8
2018-09-24T00:50:28.566Z,31.8
2018-09-24T00:51:30.125Z,32.3
2018-09-24T00:52:31.694Z,31.3
2018-09-24T00:53:33.250Z,31.3
2018-09-24T00:54:34.850Z,31.3
2018-09-24T00:55:36.418Z,31.8
2018-09-24T00:56:37.808Z,31.3
2018-09-24T00:57:39.201Z,31.3
2018-09-24T00:58:40.586Z,31.3
2018-09-24T00:59:42.166Z,31.3
2018-09-24T01:00:43.721Z,31.3
2018-09-24T01:01:45.272Z,30.3
2018-09-24T01:02:46.882Z,31.3
2018-09-24T01:03:48.460Z,31.8
2018-09-24T01:04:50.007Z,31.8
2018-09-24T01:05:51.572Z,31.8
2018-09-24T01:06:53.149Z,32.7
2018-09-24T01:07:54.706Z,31.8
2018-09-24T01:08:56.270Z,28.8
2018-09-24T01:09:57.848Z,26.9
2018-09-24T01:10:59.242Z,26.4
2018-09-24T01:12:00.828Z,25.9
2018-09-24T01:13:02.395Z,26.4
2018-09-24T01:14:03.968Z,27.9
2018-09-24T01:15:05.515Z,28.3
2018-09-24T01:16:07.083Z,30.8
2018-09-24T01:17:08.628Z,31.8
2018-09-24T01:18:10.181Z,32.7
2018-09-24T01:19:11.761Z,34.7
2018-09-24T01:20:13.319Z,34.2
2018-09-24T01:21:14.908Z,34.7
2018-09-24T01:22:16.457Z,35.7
2018-09-24T01:23:18.040Z,36.7
2018-09-24T01:24:19.595Z,36.7
2018-09-24T01:25:21.167Z,38.1
2018-09-24T01:26:22.736Z,38.1
2018-09-24T01:27:24.299Z,38.1
2018-09-24T01:28:25.689Z,38.1
2018-09-24T01:29:27.240Z,38.6
2018-09-24T01:30:28.799Z,39.6
2018-09-24T01:31:30.376Z,39.1
2018-09-24T01:32:31.774Z,39.6
2018-09-24T01:33:33.328Z,39.6
2018-09-24T01:34:34.731Z,39.1
2018-09-24T01:35:36.309Z,39.6
2018-09-24T01:36:37.874Z,39.6
2018-09-24T01:37:39.120Z,40.1
2018-09-24T01:38:40.688Z,39.6
2018-09-24T01:39:42.246Z,39.6
2018-09-24T01:40:43.798Z,40.6
2018-09-24T01:41:45.022Z,40.6
2018-09-24T01:42:46.596Z,39.6
2018-09-24T01:43:48.153Z,40.1
2018-09-24T01:44:49.703Z,40.1
2018-09-24T01:45:51.267Z,40.6
2018-09-24T01:46:52.836Z,39.6
2018-09-24T01:47:54.448Z,40.6
2018-09-24T01:48:56.004Z,40.1
2018-09-24T01:49:57.577Z,40.6
2018-09-24T01:50:59.144Z,40.1
2018-09-24T01:52:00.712Z,40.6
2018-09-24T01:53:02.265Z,40.6
2018-09-24T01:54:03.828Z,40.6
2018-09-24T01:55:05.382Z,40.6
2018-09-24T01:56:06.925Z,40.1
2018-09-24T01:57:08.308Z,40.1
2018-09-24T01:58:09.868Z,40.1
2018-09-24T01:59:11.443Z,41.1
2018-09-24T02:00:13.005Z,40.1
2018-09-24T02:01:14.560Z,40.1
2018-09-24T02:02:16.106Z,40.1
2018-09-24T02:03:17.687Z,40.1
2018-09-24T02:04:19.252Z,40.1
2018-09-24T02:05:20.807Z,39.6
2018-09-24T02:06:22.366Z,40.1
2018-09-24T02:07:23.755Z,39.1
2018-09-24T02:08:25.153Z,40.1
2018-09-24T02:09:26.728Z,39.6
2018-09-24T02:10:28.302Z,39.1
2018-09-24T02:11:29.845Z,40.1
2018-09-24T02:12:31.410Z,39.1
2018-09-24T02:13:32.969Z,39.6
2018-09-24T02:14:34.526Z,39.1
2018-09-24T02:15:36.140Z,40.1
2018-09-24T02:16:37.709Z,40.1
2018-09-24T02:17:39.268Z,39.6
2018-09-24T02:18:40.818Z,39.6
2018-09-24T02:19:42.378Z,39.6
2018-09-24T02:20:44.079Z,39.6
2018-09-24T02:21:45.745Z,40.6
2018-09-24T02:22:47.148Z,39.6
2018-09-24T02:23:48.720Z,39.6
2018-09-24T02:24:50.282Z,39.1
2018-09-24T02:25:51.821Z,39.1
2018-09-24T02:26:53.373Z,40.1
2018-09-24T02:27:54.949Z,40.1
2018-09-24T02:28:56.380Z,40.1
2018-09-24T02:29:57.930Z,39.1
2018-09-24T02:30:59.490Z,39.1
2018-09-24T02:32:01.077Z,39.1
2018-09-24T02:33:02.626Z,38.6
2018-09-24T02:34:04.198Z,39.1
2018-09-24T02:35:05.616Z,40.1
2018-09-24T02:36:07.188Z,39.1
2018-09-24T02:37:08.769Z,39.6
2018-09-24T02:38:10.337Z,39.1
2018-09-24T02:39:11.946Z,39.1
2018-09-24T02:40:13.515Z,39.1
2018-09-24T02:41:15.088Z,39.1
2018-09-24T02:42:16.680Z,39.1
2018-09-24T02:43:18.257Z,39.1
2018-09-24T02:44:19.841Z,39.1
2018-09-24T02:45:21.477Z,38.1
2018-09-24T02:46:22.882Z,39.6
2018-09-24T02:47:24.457Z,39.1
2018-09-24T02:48:26.013Z,38.6
2018-09-24T02:49:27.573Z,38.6
2018-09-24T02:50:29.135Z,39.1
2018-09-24T02:51:30.701Z,38.6
2018-09-24T02:52:32.267Z,38.1
2018-09-24T02:53:33.816Z,38.6
2018-09-24T02:54:35.387Z,39.1
2018-09-24T02:55:36.950Z,38.6
2018-09-24T02:56:38.534Z,39.1
2018-09-24T02:57:40.095Z,38.1
2018-09-24T02:58:41.507Z,38.6
2018-09-24T02:59:43.063Z,39.1
2018-09-24T03:00:44.624Z,38.6
2018-09-24T03:01:46.192Z,39.1
2018-09-24T03:02:47.766Z,38.1
2018-09-24T03:03:49.326Z,39.1
2018-09-24T03:04:50.883Z,39.6
2018-09-24T03:05:52.521Z,38.6
2018-09-24T03:06:54.093Z,38.6
2018-09-24T03:07:55.666Z,38.6
2018-09-24T03:08:57.252Z,38.6
2018-09-24T03:09:58.795Z,38.6
2018-09-24T03:11:00.371Z,37.6
2018-09-24T03:12:01.969Z,38.1
2018-09-24T03:13:03.530Z,37.6
2018-09-24T03:14:04.925Z,38.1
2018-09-24T03:15:06.485Z,37.6
2018-09-24T03:16:07.895Z,37.6
2018-09-24T03:17:09.475Z,38.6
2018-09-24T03:18:11.053Z,37.6
2018-09-24T03:19:12.619Z,38.1
2018-09-24T03:20:14.168Z,38.1
2018-09-24T03:21:15.729Z,38.1
2018-09-24T03:22:17.129Z,38.6
2018-09-24T03:23:18.697Z,37.6
2018-09-24T03:24:20.257Z,38.1
2018-09-24T03:25:21.821Z,38.6
2018-09-24T03:26:23.682Z,38.6
2018-09-24T03:27:25.542Z,38.6
2018-09-24T03:28:26.962Z,38.6
2018-09-24T03:29:28.520Z,39.1
2018-09-24T03:30:30.105Z,39.1
2018-09-24T03:31:31.528Z,39.1
2018-09-24T03:32:33.131Z,39.1
2018-09-24T03:33:34.720Z,39.6
2018-09-24T03:34:36.266Z,39.6
2018-09-24T03:35:37.830Z,39.6
2018-09-24T03:36:39.376Z,39.6
2018-09-24T03:37:40.746Z,39.6
2018-09-24T03:38:42.309Z,40.1
2018-09-24T03:39:43.866Z,39.6
2018-09-24T03:40:45.429Z,40.1
2018-09-24T03:41:46.965Z,40.1
2018-09-24T03:42:48.608Z,40.6
2018-09-24T03:43:50.167Z,41.1
2018-09-24T03:44:51.733Z,40.1
2018-09-24T03:45:53.126Z,40.1
2018-09-24T03:46:54.702Z,40.1
2018-09-24T03:47:56.287Z,40.6
2018-09-24T03:48:57.881Z,40.6
2018-09-24T03:49:59.448Z,41.1
2018-09-24T03:51:00.846Z,40.6
2018-09-24T03:52:02.256Z,41.1
2018-09-24T03:53:03.865Z,40.6
2018-09-24T03:54:05.277Z,40.1
2018-09-24T03:55:06.837Z,40.6
2018-09-24T03:56:08.434Z,40.6
2018-09-24T03:57:10.003Z,40.1
2018-09-24T03:58:11.588Z,40.1
2018-09-24T03:59:13.144Z,40.1
2018-09-24T04:00:14.707Z,39.6
2018-09-24T04:01:16.167Z,39.6
2018-09-24T04:02:17.735Z,40.1
2018-09-24T04:03:19.295Z,40.1
2018-09-24T04:04:20.886Z,39.6
2018-09-24T04:05:22.450Z,40.6
2018-09-24T04:06:24.016Z,40.1
2018-09-24T04:07:25.570Z,40.6
2018-09-24T04:08:27.142Z,39.6
2018-09-24T04:09:28.840Z,40.1
2018-09-24T04:10:30.494Z,39.6
2018-09-24T04:11:32.099Z,40.1
2018-09-24T04:12:33.676Z,40.6
2018-09-24T04:13:35.277Z,40.6
2018-09-24T04:14:36.886Z,40.1
2018-09-24T04:15:38.466Z,40.1
2018-09-24T04:16:40.047Z,40.1
2018-09-24T04:17:41.727Z,39.1
2018-09-24T04:18:43.308Z,39.6
2018-09-24T04:19:44.862Z,40.1
2018-09-24T04:20:46.417Z,39.6
2018-09-24T04:21:47.831Z,39.6
2018-09-24T04:22:49.403Z,39.6
2018-09-24T04:23:50.997Z,39.1
2018-09-24T04:24:52.580Z,40.1
2018-09-24T04:25:54.146Z,39.6
2018-09-24T04:26:55.725Z,40.1
2018-09-24T04:27:57.289Z,39.6
2018-09-24T04:28:58.892Z,39.1
2018-09-24T04:30:00.288Z,40.1
2018-09-24T04:31:01.860Z,40.1
2018-09-24T04:32:03.430Z,39.6
2018-09-24T04:33:05.023Z,39.1
2018-09-24T04:34:06.632Z,38.6
2018-09-24T04:35:08.210Z,39.1
2018-09-24T04:36:09.823Z,39.1
2018-09-24T04:37:11.385Z,40.1
2018-09-24T04:38:12.968Z,39.6
2018-09-24T04:39:14.568Z,39.6
2018-09-24T04:40:16.129Z,39.1
2018-09-24T04:41:17.706Z,38.6
2018-09-24T04:42:19.287Z,39.6
2018-09-24T04:43:20.695Z,39.1
2018-09-24T04:44:22.249Z,39.1
2018-09-24T04:45:23.869Z,38.6
2018-09-24T04:46:25.432Z,39.1
2018-09-24T04:47:26.992Z,38.6
2018-09-24T04:48:28.547Z,38.6
2018-09-24T04:49:30.127Z,38.6
2018-09-24T04:50:31.697Z,38.6
2018-09-24T04:51:33.307Z,38.6
2018-09-24T04:52:34.853Z,39.1
2018-09-24T04:53:36.397Z,38.1
2018-09-24T04:54:37.812Z,38.6
2018-09-24T04:55:39.222Z,38.6
2018-09-24T04:56:40.774Z,38.1
2018-09-24T04:57:42.344Z,38.1
2018-09-24T04:58:44.185Z,39.6
2018-09-24T04:59:46.111Z,38.6
2018-09-24T05:00:47.677Z,38.6
2018-09-24T05:01:49.251Z,38.6
2018-09-24T05:02:50.831Z,38.6
2018-09-24T05:03:52.073Z,38.1
2018-09-24T05:04:53.633Z,38.6
2018-09-24T05:05:55.198Z,37.6
2018-09-24T05:06:56.756Z,39.1
2018-09-24T05:07:58.311Z,38.6
2018-09-24T05:08:59.870Z,38.1
2018-09-24T05:10:01.280Z,37.6
2018-09-24T05:11:02.902Z,38.6
2018-09-24T05:12:04.485Z,38.1
2018-09-24T05:13:06.075Z,38.6
2018-09-24T05:14:07.629Z,37.6
2018-09-24T05:15:09.257Z,38.6
2018-09-24T05:16:11.141Z,38.1
2018-09-24T05:17:12.898Z,38.6
2018-09-24T05:18:14.484Z,38.6
2018-09-24T05:19:16.074Z,38.6
2018-09-24T05:20:17.997Z,37.6
2018-09-24T05:21:19.883Z,37.6
2018-09-24T05:22:21.107Z,37.6
2018-09-24T05:23:22.662Z,37.6
2018-09-24T05:24:24.228Z,37.1
2018-09-24T05:25:25.791Z,38.1
2018-09-24T05:26:27.367Z,37.6
2018-09-24T05:27:29.629Z,38.1
2018-09-24T05:28:31.631Z,38.1
2018-09-24T05:29:33.189Z,38.1
2018-09-24T05:30:34.810Z,37.6
2018-09-24T05:31:36.401Z,37.6
2018-09-24T05:32:37.995Z,39.1
2018-09-24T05:33:39.557Z,38.6
2018-09-24T05:34:41.140Z,38.1
2018-09-24T05:35:42.691Z,38.6
2018-09-24T05:36:44.277Z,39.1
2018-09-24T05:37:45.864Z,38.6
2018-09-24T05:38:47.427Z,38.6
2018-09-24T05:39:49.027Z,39.1
2018-09-24T05:40:50.603Z,39.1
2018-09-24T05:41:52.169Z,39.6
2018-09-24T05:42:53.757Z,40.1
2018-09-24T05:43:55.316Z,39.1
2018-09-24T05:44:56.748Z,40.1
2018-09-24T05:45:58.381Z,39.6
2018-09-24T05:46:59.804Z,41.1
2018-09-24T05:48:01.572Z,40.6
2018-09-24T05:49:03.432Z,40.1
2018-09-24T05:50:04.862Z,41.1
2018-09-24T05:51:06.431Z,41.1
2018-09-24T05:52:07.999Z,40.6
2018-09-24T05:53:09.569Z,41.1
2018-09-24T05:54:11.257Z,40.1
2018-09-24T05:55:12.608Z,40.6
2018-09-24T05:56:14.176Z,40.6
2018-09-24T05:57:15.778Z,40.1
2018-09-24T05:58:17.344Z,40.6
2018-09-24T05:59:18.922Z,41.1
2018-09-24T06:00:20.489Z,40.6
2018-09-24T06:01:22.059Z,40.1
2018-09-24T06:02:23.638Z,40.6
2018-09-24T06:03:25.261Z,40.6
2018-09-24T06:04:26.806Z,40.6
2018-09-24T06:05:28.475Z,41.5
2018-09-24T06:06:30.029Z,40.6
2018-09-24T06:07:31.605Z,40.6
2018-09-24T06:08:33.183Z,41.1
2018-09-24T06:09:34.837Z,40.1
2018-09-24T06:10:36.235Z,40.6
2018-09-24T06:11:37.806Z,40.6
2018-09-24T06:12:39.383Z,40.1
2018-09-24T06:13:41.326Z,40.1
2018-09-24T06:14:43.201Z,41.1
2018-09-24T06:15:44.767Z,40.6
2018-09-24T06:16:46.348Z,40.6
2018-09-24T06:17:47.908Z,40.6
2018-09-24T06:18:49.547Z,40.1
2018-09-24T06:19:51.185Z,40.6
2018-09-24T06:20:52.600Z,40.6
2018-09-24T06:21:54.166Z,41.1
2018-09-24T06:22:55.737Z,40.1
2018-09-24T06:23:57.314Z,40.1
2018-09-24T06:24:58.705Z,40.1
2018-09-24T06:26:00.293Z,39.6
2018-09-24T06:27:01.872Z,39.6
2018-09-24T06:28:03.448Z,40.1
2018-09-24T06:29:05.040Z,39.6
2018-09-24T06:30:06.595Z,40.1
2018-09-24T06:31:08.168Z,40.1
2018-09-24T06:32:09.720Z,39.6
2018-09-24T06:33:11.276Z,39.6
2018-09-24T06:34:13.024Z,39.1
2018-09-24T06:35:14.697Z,40.1
2018-09-24T06:36:16.291Z,40.6
2018-09-24T06:37:17.847Z,39.6
2018-09-24T06:38:19.423Z,39.1
2018-09-24T06:39:21.018Z,40.1
2018-09-24T06:40:22.566Z,39.6
2018-09-24T06:41:24.229Z,40.1
2018-09-24T06:42:25.891Z,39.6
2018-09-24T06:43:27.346Z,39.6
2018-09-24T06:44:28.959Z,40.1
2018-09-24T06:45:30.593Z,39.1
2018-09-24T06:46:32.170Z,39.1
2018-09-24T06:47:33.749Z,39.6
2018-09-24T06:48:35.320Z,39.1
2018-09-24T06:49:37.096Z,39.1
2018-09-24T06:50:38.843Z,38.6
2018-09-24T06:51:40.413Z,39.1
2018-09-24T06:52:41.994Z,38.1
2018-09-24T06:53:43.560Z,38.6
2018-09-24T06:54:45.122Z,38.6
2018-09-24T06:55:46.717Z,38.6
2018-09-24T06:56:48.111Z,38.6
2018-09-24T06:57:49.676Z,38.6
2018-09-24T06:58:51.252Z,38.6
2018-09-24T06:59:52.822Z,39.1
2018-09-24T07:00:54.396Z,38.1
2018-09-24T07:01:55.966Z,39.1
2018-09-24T07:02:57.531Z,38.1
2018-09-24T07:03:59.115Z,38.6
2018-09-24T07:05:00.702Z,38.6
2018-09-24T07:06:02.286Z,38.6
2018-09-24T07:07:03.988Z,39.1
2018-09-24T07:08:05.456Z,39.1
2018-09-24T07:09:06.918Z,38.6
2018-09-24T07:10:08.503Z,38.6
2018-09-24T07:11:10.233Z,38.6
2018-09-24T07:12:11.929Z,38.6
2018-09-24T07:13:13.538Z,38.1
2018-09-24T07:14:15.105Z,38.1
2018-09-24T07:15:16.498Z,38.6
2018-09-24T07:16:18.068Z,38.1
2018-09-24T07:17:19.640Z,38.6
2018-09-24T07:18:21.241Z,37.6
2018-09-24T07:19:22.797Z,38.1
2018-09-24T07:20:24.196Z,38.1
2018-09-24T07:21:26.046Z,38.6
2018-09-24T07:22:27.910Z,38.6
2018-09-24T07:23:29.461Z,37.6
2018-09-24T07:24:31.031Z,38.1
2018-09-24T07:25:32.624Z,38.1
2018-09-24T07:26:34.214Z,38.6
2018-09-24T07:27:36.068Z,38.1
2018-09-24T07:28:37.816Z,38.6
2018-09-24T07:29:39.363Z,38.6
2018-09-24T07:30:40.948Z,38.1
2018-09-24T07:31:42.509Z,38.1
2018-09-24T07:32:44.064Z,38.1
2018-09-24T07:33:45.526Z,39.1
2018-09-24T07:34:47.090Z,39.1
2018-09-24T07:35:48.676Z,39.1
2018-09-24T07:36:50.239Z,38.1
2018-09-24T07:37:51.817Z,39.1
2018-09-24T07:38:53.379Z,39.6
2018-09-24T07:39:54.934Z,39.6
2018-09-24T07:40:56.497Z,40.1
2018-09-24T07:41:58.060Z,39.6
2018-09-24T07:42:59.890Z,40.1
2018-09-24T07:44:01.669Z,40.6
2018-09-24T07:45:03.219Z,39.6
2018-09-24T07:46:04.808Z,40.1
2018-09-24T07:47:06.389Z,40.1
2018-09-24T07:48:07.981Z,39.6
2018-09-24T07:49:09.549Z,40.1
2018-09-24T07:50:11.127Z,40.1
2018-09-24T07:51:12.563Z,39.6
2018-09-24T07:52:14.152Z,40.1
2018-09-24T07:53:15.719Z,40.1
2018-09-24T07:54:17.303Z,40.1
2018-09-24T07:55:19.022Z,39.6
2018-09-24T07:56:20.668Z,40.1
2018-09-24T07:57:22.249Z,40.1
2018-09-24T07:58:23.829Z,40.6
2018-09-24T07:59:25.645Z,40.1
2018-09-24T08:00:27.227Z,40.6
2018-09-24T08:01:28.818Z,40.6
2018-09-24T08:02:30.411Z,40.6
2018-09-24T08:03:31.989Z,40.1
2018-09-24T08:04:33.574Z,39.6
2018-09-24T08:05:35.163Z,40.1
2018-09-24T08:06:36.750Z,40.1
2018-09-24T08:07:38.808Z,40.1
2018-09-24T08:08:40.379Z,40.1
2018-09-24T08:09:41.947Z,40.6
2018-09-24T08:10:43.595Z,40.1
2018-09-24T08:11:45.168Z,39.6
2018-09-24T08:12:46.787Z,39.6
2018-09-24T08:13:48.454Z,39.6
2018-09-24T08:14:50.012Z,40.6
2018-09-24T08:15:51.605Z,40.1
2018-09-24T08:16:53.184Z,39.1
2018-09-24T08:17:54.752Z,39.1
2018-09-24T08:18:56.347Z,39.6
2018-09-24T08:19:57.753Z,39.6
2018-09-24T08:20:59.533Z,39.6
2018-09-24T08:22:01.318Z,39.1
2018-09-24T08:23:02.887Z,39.1
2018-09-24T08:24:04.439Z,39.1
2018-09-24T08:25:06.014Z,39.6
2018-09-24T08:26:07.577Z,39.6
2018-09-24T08:27:09.149Z,38.6
2018-09-24T08:28:10.728Z,38.6
2018-09-24T08:29:12.285Z,39.1
2018-09-24T08:30:13.848Z,39.1
2018-09-24T08:31:15.244Z,38.6
2018-09-24T08:32:16.808Z,39.6
2018-09-24T08:33:18.389Z,38.6
2018-09-24T08:34:19.957Z,39.1
2018-09-24T08:35:21.504Z,38.6
2018-09-24T08:36:23.457Z,39.1
2018-09-24T08:37:25.329Z,39.1
2018-09-24T08:38:26.910Z,38.6
2018-09-24T08:39:28.466Z,38.1
2018-09-24T08:40:30.016Z,38.6
2018-09-24T08:41:31.593Z,38.1
2018-09-24T08:42:33.170Z,38.6
2018-09-24T08:43:34.758Z,37.6
2018-09-24T08:44:36.336Z,39.1
2018-09-24T08:45:37.887Z,39.1
2018-09-24T08:46:39.498Z,38.6
2018-09-24T08:47:41.045Z,38.1
2018-09-24T08:48:42.637Z,37.6
2018-09-24T08:49:44.425Z,38.1
2018-09-24T08:50:46.289Z,38.6
2018-09-24T08:51:47.854Z,38.1
2018-09-24T08:52:49.443Z,38.6
2018-09-24T08:53:51.033Z,38.1
2018-09-24T08:54:52.601Z,39.1
2018-09-24T08:55:54.180Z,37.6
2018-09-24T08:56:56.172Z,38.6
2018-09-24T08:57:58.214Z,38.1
2018-09-24T08:58:59.767Z,38.1
2018-09-24T09:00:01.361Z,38.1
2018-09-24T09:01:02.937Z,37.6
2018-09-24T09:02:04.502Z,38.6
2018-09-24T09:03:06.067Z,38.1
2018-09-24T09:04:07.628Z,38.1
2018-09-24T09:05:09.224Z,38.6
2018-09-24T09:06:10.804Z,38.1
2018-09-24T09:07:12.381Z,38.6
2018-09-24T09:08:14.198Z,39.1
2018-09-24T09:09:15.978Z,37.6
2018-09-24T09:10:17.410Z,38.1
2018-09-24T09:11:18.977Z,37.6
2018-09-24T09:12:20.531Z,38.1
2018-09-24T09:13:21.941Z,38.1
2018-09-24T09:14:23.507Z,39.1
2018-09-24T09:15:25.071Z,39.1
2018-09-24T09:16:27.010Z,38.6
2018-09-24T09:17:28.784Z,39.1
2018-09-24T09:18:30.338Z,39.1
2018-09-24T09:19:31.932Z,39.1
2018-09-24T09:20:33.503Z,39.1
2018-09-24T09:21:35.069Z,39.6
2018-09-24T09:22:36.630Z,39.6
2018-09-24T09:23:38.184Z,40.6
2018-09-24T09:24:39.736Z,40.1
2018-09-24T09:25:41.823Z,40.1
2018-09-24T09:26:43.393Z,40.1
2018-09-24T09:27:44.964Z,40.6
2018-09-24T09:28:46.520Z,40.1
2018-09-24T09:29:48.124Z,40.1
2018-09-24T09:30:49.717Z,39.6
2018-09-24T09:31:51.290Z,40.1
2018-09-24T09:32:52.516Z,40.6
2018-09-24T09:33:54.090Z,40.1
2018-09-24T09:34:55.639Z,40.6
2018-09-24T09:35:57.182Z,40.6
2018-09-24T09:36:58.761Z,39.6
2018-09-24T09:38:00.352Z,40.1
2018-09-24T09:39:01.902Z,40.1
2018-09-24T09:40:03.463Z,41.1
2018-09-24T09:41:05.338Z,40.6
2018-09-24T09:42:07.140Z,39.6
2018-09-24T09:43:08.696Z,40.6
2018-09-24T09:44:10.258Z,41.1
2018-09-24T09:45:11.810Z,40.6
2018-09-24T09:46:13.376Z,40.1
2018-09-24T09:47:14.929Z,40.6
2018-09-24T09:48:16.499Z,39.6
2018-09-24T09:49:18.056Z,40.1
2018-09-24T09:50:19.471Z,40.1
2018-09-24T09:51:21.015Z,39.6
2018-09-24T09:52:22.421Z,39.6
2018-09-24T09:53:24.162Z,39.6
2018-09-24T09:54:25.790Z,39.6
2018-09-24T09:55:27.197Z,40.1
2018-09-24T09:56:28.761Z,40.1
2018-09-24T09:57:30.329Z,39.6
2018-09-24T09:58:31.893Z,40.1
2018-09-24T09:59:33.467Z,39.6
2018-09-24T10:00:35.052Z,39.6
2018-09-24T10:01:36.675Z,39.6
2018-09-24T10:02:38.236Z,39.6
2018-09-24T10:03:39.827Z,39.6
2018-09-24T10:04:41.520Z,39.6
2018-09-24T10:05:43.236Z,39.6
2018-09-24T10:06:44.636Z,39.1
2018-09-24T10:07:46.199Z,39.6
2018-09-24T10:08:47.786Z,39.1
2018-09-24T10:09:49.367Z,39.6
2018-09-24T10:10:50.931Z,39.1
2018-09-24T10:11:52.498Z,39.6
2018-09-24T10:12:54.097Z,39.1
2018-09-24T10:13:55.668Z,39.1
2018-09-24T10:14:57.088Z,38.6
2018-09-24T10:15:58.668Z,39.6
2018-09-24T10:17:00.228Z,39.6
2018-09-24T10:18:01.799Z,39.1
2018-09-24T10:19:03.356Z,38.6
2018-09-24T10:20:04.916Z,39.1
2018-09-24T10:21:06.581Z,38.6
2018-09-24T10:22:08.162Z,39.1
2018-09-24T10:23:09.578Z,39.6
2018-09-24T10:24:10.806Z,38.6
2018-09-24T10:25:12.203Z,38.6
2018-09-24T10:26:13.755Z,39.6
2018-09-24T10:27:15.314Z,38.1
2018-09-24T10:28:16.888Z,38.6
2018-09-24T10:29:18.459Z,38.1
2018-09-24T10:30:20.021Z,39.1
2018-09-24T10:31:21.566Z,39.6
2018-09-24T10:32:23.145Z,38.6
2018-09-24T10:33:24.716Z,38.6
2018-09-24T10:34:26.304Z,38.6
2018-09-24T10:35:27.872Z,38.1
2018-09-24T10:36:29.443Z,39.1
2018-09-24T10:37:31.004Z,38.1
2018-09-24T10:38:32.577Z,38.6
2018-09-24T10:39:34.373Z,38.6
2018-09-24T10:40:36.065Z,38.6
2018-09-24T10:41:37.630Z,38.6
2018-09-24T10:42:39.200Z,38.1
2018-09-24T10:43:40.762Z,38.6
2018-09-24T10:44:42.351Z,38.1
2018-09-24T10:45:43.926Z,38.1
2018-09-24T10:46:45.494Z,38.6
2018-09-24T10:47:46.915Z,38.1
2018-09-24T10:48:48.468Z,38.1
2018-09-24T10:49:50.038Z,38.1
2018-09-24T10:50:51.620Z,38.1
2018-09-24T10:51:53.190Z,37.1
2018-09-24T10:52:54.893Z,38.1
2018-09-24T10:53:56.551Z,38.1
2018-09-24T10:54:57.961Z,37.6
2018-09-24T10:55:59.538Z,38.1
2018-09-24T10:57:01.103Z,37.6
2018-09-24T10:58:02.775Z,38.1
2018-09-24T10:59:04.491Z,38.1
2018-09-24T11:00:06.156Z,38.6
2018-09-24T11:01:07.801Z,38.1
2018-09-24T11:02:09.586Z,38.6
2018-09-24T11:03:11.158Z,38.6
2018-09-24T11:04:12.871Z,38.1
2018-09-24T11:05:14.268Z,38.6
2018-09-24T11:06:15.853Z,37.6
2018-09-24T11:07:17.438Z,39.1
2018-09-24T11:08:19.002Z,38.6
2018-09-24T11:09:20.564Z,39.1
2018-09-24T11:10:22.579Z,40.1
2018-09-24T11:11:24.130Z,39.1
2018-09-24T11:12:25.688Z,39.6
2018-09-24T11:13:27.260Z,40.1
2018-09-24T11:14:28.861Z,40.1
2018-09-24T11:15:30.424Z,40.1
2018-09-24T11:16:32.883Z,40.6
2018-09-24T11:17:36.092Z,38.6
2018-09-24T11:20:12.228Z,40.1
2018-09-24T11:21:13.787Z,40.6
2018-09-24T11:22:15.548Z,40.1
2018-09-24T11:23:17.326Z,40.6
2018-09-24T11:24:18.899Z,39.6
2018-09-24T11:25:20.302Z,40.1
2018-09-24T11:27:33.462Z,40.1
2018-09-24T11:28:35.028Z,40.6
2018-09-24T11:29:37.077Z,40.6
2018-09-24T11:30:38.952Z,39.6
2018-09-24T11:31:40.512Z,40.1
2018-09-24T11:32:42.078Z,41.1
2018-09-24T11:33:43.645Z,40.6
2018-09-24T11:34:45.280Z,40.1
2018-09-24T11:35:46.844Z,40.1
2018-09-24T11:36:48.403Z,40.6
2018-09-24T11:37:49.975Z,40.1
2018-09-24T11:38:51.380Z,40.1
2018-09-24T11:39:52.933Z,40.6
2018-09-24T11:40:54.347Z,40.1
2018-09-24T11:41:55.917Z,40.1
2018-09-24T11:42:57.480Z,40.6
2018-09-24T11:43:59.054Z,40.1
2018-09-24T11:45:00.640Z,39.1
2018-09-24T11:46:02.239Z,40.1
2018-09-24T11:47:04.282Z,40.1
2018-09-24T11:48:06.145Z,39.6
2018-09-24T11:49:07.547Z,39.6
2018-09-24T11:50:09.090Z,39.6
2018-09-24T11:51:10.674Z,40.1
2018-09-24T11:52:12.247Z,39.6
2018-09-24T11:53:13.829Z,39.6
2018-09-24T11:54:15.384Z,39.1
2018-09-24T11:55:16.929Z,40.6
2018-09-24T11:56:18.635Z,39.1
2018-09-24T11:57:20.360Z,39.6
2018-09-24T11:58:21.928Z,39.1
2018-09-24T11:59:23.486Z,39.6
2018-09-24T12:00:25.093Z,40.1
2018-09-24T12:01:26.639Z,38.6
2018-09-24T12:02:28.387Z,39.1
2018-09-24T12:03:29.934Z,38.6
2018-09-24T12:04:31.364Z,39.1
2018-09-24T12:05:32.755Z,38.6
2018-09-24T12:06:34.327Z,38.6
2018-09-24T12:07:35.896Z,39.6
2018-09-24T12:08:37.451Z,38.6
2018-09-24T12:09:38.874Z,39.1
2018-09-24T12:10:40.761Z,39.1
2018-09-24T12:11:42.495Z,38.6
2018-09-24T12:12:44.078Z,38.1
2018-09-24T12:13:45.648Z,39.1
2018-09-24T12:14:47.046Z,38.6
2018-09-24T12:15:48.516Z,38.1
2018-09-24T12:16:49.956Z,38.1
2018-09-24T12:17:51.365Z,38.6
2018-09-24T12:18:52.785Z,38.1
2018-09-24T12:19:54.194Z,38.1
2018-09-24T12:20:55.768Z,38.6
2018-09-24T12:21:57.351Z,38.6
2018-09-24T12:22:58.915Z,38.1
2018-09-24T12:24:00.407Z,39.1
2018-09-24T12:25:02.066Z,38.6
2018-09-24T12:26:03.650Z,38.6
2018-09-24T12:27:05.205Z,38.6
2018-09-24T12:28:06.776Z,39.1
2018-09-24T12:29:08.359Z,38.6
2018-09-24T12:30:09.770Z,38.6
2018-09-24T12:31:11.325Z,39.1
2018-09-24T12:32:12.903Z,39.1
2018-09-24T12:33:14.467Z,37.6
2018-09-24T12:34:16.038Z,38.6
2018-09-24T12:35:17.590Z,38.1
2018-09-24T12:36:19.153Z,38.1
2018-09-24T12:37:20.726Z,39.6
2018-09-24T12:38:22.141Z,38.1
2018-09-24T12:39:24.162Z,38.1
2018-09-24T12:40:25.844Z,38.6
2018-09-24T12:41:27.426Z,38.1
2018-09-24T12:42:28.817Z,38.6
2018-09-24T12:43:30.379Z,37.6
2018-09-24T12:44:31.955Z,38.1
2018-09-24T12:45:33.503Z,38.1
2018-09-24T12:46:35.065Z,37.6
2018-09-24T12:47:36.682Z,38.6
2018-09-24T12:48:38.157Z,38.1
2018-09-24T12:49:39.724Z,38.6
2018-09-24T12:50:41.304Z,38.1
2018-09-24T12:51:42.872Z,38.6
2018-09-24T12:52:44.440Z,38.1
2018-09-24T12:53:45.853Z,38.1
2018-09-24T12:54:47.459Z,38.6
2018-09-24T12:55:48.900Z,38.6
2018-09-24T12:56:50.533Z,38.1
2018-09-24T12:57:51.944Z,38.6
2018-09-24T12:58:53.516Z,38.1
2018-09-24T12:59:55.125Z,38.6
2018-09-24T13:00:56.684Z,38.6
2018-09-24T13:01:58.247Z,38.6
2018-09-24T13:02:59.831Z,38.1
2018-09-24T13:04:01.393Z,38.6
2018-09-24T13:05:02.959Z,38.6
2018-09-24T13:06:04.508Z,38.1
2018-09-24T13:07:06.061Z,38.6
2018-09-24T13:08:07.630Z,40.1
2018-09-24T13:09:09.198Z,39.1
2018-09-24T13:10:10.587Z,39.6
2018-09-24T13:11:12.163Z,39.6
2018-09-24T13:12:13.736Z,39.1
2018-09-24T13:13:15.304Z,40.1
2018-09-24T13:14:16.908Z,39.1
2018-09-24T13:15:18.477Z,40.1
2018-09-24T13:16:19.876Z,40.1
2018-09-24T13:17:21.450Z,39.1
2018-09-24T13:18:23.021Z,40.6
2018-09-24T13:19:24.600Z,39.6
2018-09-24T13:20:26.163Z,40.6
2018-09-24T13:21:27.610Z,40.1
2018-09-24T13:22:29.212Z,40.6
2018-09-24T13:23:30.795Z,40.6
2018-09-24T13:24:32.352Z,40.6
2018-09-24T13:25:33.925Z,40.6
2018-09-24T13:26:35.543Z,40.1
2018-09-24T13:27:37.112Z,40.6
2018-09-24T13:28:38.693Z,39.6
2018-09-24T13:29:40.089Z,40.1
2018-09-24T13:30:41.502Z,40.1
2018-09-24T13:31:42.907Z,40.1
2018-09-24T13:32:44.737Z,39.6
2018-09-24T13:33:46.465Z,39.6
2018-09-24T13:34:48.036Z,41.1
2018-09-24T13:35:49.606Z,40.1
2018-09-24T13:36:51.184Z,40.1
2018-09-24T13:37:52.763Z,40.1
2018-09-24T13:38:54.318Z,39.6
2018-09-24T13:39:55.880Z,40.1
2018-09-24T13:40:57.439Z,39.6
2018-09-24T13:41:59.000Z,39.1